createdAt,value
2023-02-15T00:00:13.242Z,4.10
2023-02-15T00:02:40.008Z,4.70
2023-02-15T00:05:07.478Z,6.30
2023-02-15T00:07:34.474Z,4.80
2023-02-15T00:10:01.145Z,5.40
2023-02-15T00:12:28.871Z,3.60
2023-02-15T00:14:55.567Z,4.00
2023-02-15T00:17:22.236Z,5.70
2023-02-15T00:19:48.973Z,4.80
2023-02-15T00:22:15.741Z,6.50
2023-02-15T00:24:42.733Z,3.80
2023-02-15T00:27:09.574Z,5.50
2023-02-15T00:29:38.492Z,5.00
2023-02-15T00:32:06.536Z,2.70
2023-02-15T00:34:33.082Z,5.40
2023-02-15T00:37:00.852Z,3.70
2023-02-15T00:39:29.297Z,9.70
2023-02-15T00:41:56.127Z,4.50
2023-02-15T00:44:22.954Z,5.50
2023-02-15T00:46:49.647Z,4.90
2023-02-15T00:49:16.612Z,3.20
2023-02-15T00:51:43.405Z,4.40
2023-02-15T00:54:10.330Z,5.00
2023-02-15T00:56:37.886Z,4.90
2023-02-15T00:59:09.645Z,3.40
2023-02-15T01:01:37.252Z,2.90
2023-02-15T01:04:04.362Z,3.10
2023-02-15T01:06:31.139Z,4.70
2023-02-15T01:08:57.776Z,2.20
2023-02-15T01:11:24.518Z,2.60
2023-02-15T01:13:56.044Z,3.20
2023-02-15T01:16:23.910Z,3.40
2023-02-15T01:18:57.468Z,3.00
2023-02-15T01:21:25.356Z,4.30
2023-02-15T01:23:52.029Z,3.10
2023-02-15T01:26:18.987Z,3.20
2023-02-15T01:28:45.814Z,4.30
2023-02-15T01:31:18.386Z,3.80
2023-02-15T01:33:46.862Z,2.60
2023-02-15T01:36:14.665Z,4.00
2023-02-15T01:39:38.388Z,4.40
2023-02-15T01:42:27.790Z,3.90
2023-02-15T01:44:58.889Z,8.70
2023-02-15T01:47:35.109Z,4.20
2023-02-15T01:50:14.214Z,2.80
2023-02-15T01:52:47.285Z,3.00
2023-02-15T01:55:14.037Z,4.50
2023-02-15T01:57:41.384Z,3.50
2023-02-15T02:00:13.758Z,3.20
2023-02-15T02:02:43.024Z,2.20
2023-02-15T02:05:09.919Z,2.20
2023-02-15T02:07:42.286Z,1.50
2023-02-15T02:10:10.985Z,2.20
2023-02-15T02:12:39.438Z,1.60
2023-02-15T02:18:09.569Z,2.00
2023-02-15T02:20:57.106Z,2.20
2023-02-15T02:23:26.093Z,2.30
2023-02-15T02:26:11.134Z,1.40
2023-02-15T02:29:04.946Z,3.00
2023-02-15T02:31:52.237Z,1.40
2023-02-15T02:34:30.042Z,3.70
2023-02-15T02:37:17.334Z,1.70
2023-02-15T02:40:05.229Z,3.90
2023-02-15T02:42:54.804Z,1.60
2023-02-15T02:45:42.254Z,1.80
2023-02-15T02:48:15.139Z,1.80
2023-02-15T02:50:43.629Z,4.00
2023-02-15T02:53:14.941Z,2.40
2023-02-15T02:55:48.437Z,2.60
2023-02-15T02:58:38.633Z,3.40
2023-02-15T03:01:12.270Z,4.80
2023-02-15T03:03:48.641Z,7.80
2023-02-15T03:06:29.259Z,6.60
2023-02-15T03:09:04.597Z,6.30
2023-02-15T03:11:32.878Z,6.70
2023-02-15T03:14:01.566Z,8.90
2023-02-15T03:16:29.976Z,8.20
2023-02-15T03:19:10.717Z,11.30
2023-02-15T03:21:58.766Z,6.70
2023-02-15T03:24:37.480Z,4.60
2023-02-15T03:27:11.956Z,5.20
2023-02-15T03:29:40.778Z,5.80
2023-02-15T03:32:10.451Z,5.20
2023-02-15T03:34:38.873Z,7.00
2023-02-15T03:37:19.702Z,4.20
2023-02-15T03:39:55.187Z,3.70
2023-02-15T03:42:27.968Z,2.00
2023-02-15T03:45:13.808Z,2.10
2023-02-15T03:47:47.678Z,2.90
2023-02-15T03:50:41.034Z,1.80
2023-02-15T03:53:10.937Z,1.80
2023-02-15T03:55:40.554Z,1.80
2023-02-15T03:58:27.813Z,2.30
2023-02-15T04:01:19.355Z,3.00
2023-02-15T04:03:55.008Z,3.10
2023-02-15T04:06:23.052Z,2.20
2023-02-15T04:09:09.802Z,1.80
2023-02-15T04:11:41.270Z,2.20
2023-02-15T04:14:28.285Z,2.70
2023-02-15T04:16:56.783Z,3.40
2023-02-15T04:19:43.840Z,2.20
2023-02-15T04:22:30.875Z,2.80
2023-02-15T04:25:14.354Z,4.60
2023-02-15T04:27:44.562Z,2.60
2023-02-15T04:30:13.494Z,3.60
2023-02-15T04:32:41.553Z,10.80
2023-02-15T04:35:10.454Z,17.20
2023-02-15T04:37:41.956Z,9.90
2023-02-15T04:40:11.932Z,8.00
2023-02-15T04:42:40.044Z,7.10
2023-02-15T04:45:09.126Z,8.00
2023-02-15T04:47:37.618Z,8.10
2023-02-15T04:50:06.545Z,6.90
2023-02-15T04:52:35.598Z,9.30
2023-02-15T04:55:05.008Z,6.90
2023-02-15T04:57:33.722Z,9.40
2023-02-15T05:00:01.975Z,9.80
2023-02-15T05:02:30.156Z,6.90
2023-02-15T05:04:58.453Z,5.90
2023-02-15T05:07:26.505Z,9.70
2023-02-15T05:09:54.768Z,10.30
2023-02-15T05:12:22.834Z,7.20
2023-02-15T05:14:51.018Z,7.60
2023-02-15T05:17:19.736Z,6.10
2023-02-15T05:19:48.215Z,5.80
2023-02-15T05:22:16.324Z,4.60
2023-02-15T05:25:03.517Z,5.20
2023-02-15T05:27:50.504Z,4.10
2023-02-15T05:30:19.117Z,4.00
2023-02-15T05:32:48.298Z,5.10
2023-02-15T05:35:16.978Z,5.00
2023-02-15T05:37:45.112Z,3.70
2023-02-15T05:40:13.413Z,2.70
2023-02-15T05:42:42.236Z,6.80
2023-02-15T05:45:11.050Z,2.70
2023-02-15T05:47:39.030Z,4.70
2023-02-15T05:50:08.815Z,8.10
2023-02-15T05:52:37.149Z,5.90
2023-02-15T05:55:06.450Z,6.60
2023-02-15T05:57:34.771Z,3.90
2023-02-15T06:00:05.462Z,4.50
2023-02-15T06:02:39.962Z,4.20
2023-02-15T06:05:08.783Z,4.10
2023-02-15T06:07:36.939Z,5.80
2023-02-15T06:10:06.367Z,4.60
2023-02-15T06:12:34.723Z,3.40
2023-02-15T06:15:05.102Z,5.40
2023-02-15T06:17:33.736Z,8.30
2023-02-15T06:20:02.030Z,4.60
2023-02-15T06:22:30.807Z,4.90
2023-02-15T06:24:59.295Z,6.40
2023-02-15T06:27:27.886Z,2.40
2023-02-15T06:29:56.808Z,3.00
2023-02-15T06:32:25.164Z,5.50
2023-02-15T06:34:53.715Z,2.80
2023-02-15T06:37:21.930Z,4.00
2023-02-15T06:39:51.076Z,4.20
2023-02-15T06:42:19.575Z,6.30
2023-02-15T06:44:48.098Z,5.20
2023-02-15T06:47:16.076Z,3.10
2023-02-15T06:49:44.443Z,4.10
2023-02-15T06:52:14.263Z,7.80
2023-02-15T06:54:43.516Z,4.60
2023-02-15T06:57:11.995Z,4.20
2023-02-15T06:59:42.932Z,4.30
2023-02-15T07:02:14.722Z,5.70
2023-02-15T07:04:43.298Z,5.20
2023-02-15T07:07:12.678Z,2.90
2023-02-15T07:09:43.910Z,4.30
2023-02-15T07:12:31.570Z,4.10
2023-02-15T07:15:00.319Z,6.20
2023-02-15T07:17:37.205Z,6.00
2023-02-15T07:20:08.894Z,4.60
2023-02-15T07:22:38.238Z,4.00
2023-02-15T07:25:08.514Z,5.30
2023-02-15T07:27:36.870Z,4.00
2023-02-15T07:30:06.592Z,5.70
2023-02-15T07:32:36.360Z,4.40
2023-02-15T07:35:04.689Z,6.10
2023-02-15T07:37:33.696Z,7.20
2023-02-15T07:40:02.050Z,7.40
2023-02-15T07:42:31.751Z,3.20
2023-02-15T07:45:00.226Z,3.90
2023-02-15T07:47:28.419Z,7.00
2023-02-15T07:49:58.416Z,5.50
2023-02-15T07:52:26.873Z,4.20
2023-02-15T07:54:55.589Z,5.10
2023-02-15T07:57:25.700Z,4.30
2023-02-15T07:59:53.976Z,6.10
2023-02-15T08:02:22.266Z,5.20
2023-02-15T08:04:50.428Z,7.10
2023-02-15T08:07:18.672Z,4.40
2023-02-15T08:09:46.603Z,3.80
2023-02-15T08:12:15.175Z,4.70
2023-02-15T08:14:43.472Z,3.40
2023-02-15T08:17:11.847Z,4.20
2023-02-15T08:19:51.601Z,7.00
2023-02-15T08:22:20.255Z,3.60
2023-02-15T08:24:48.702Z,5.20
2023-02-15T08:27:16.949Z,5.00
2023-02-15T08:29:45.673Z,3.20
2023-02-15T08:32:14.999Z,5.20
2023-02-15T08:34:43.963Z,3.50
2023-02-15T08:37:13.289Z,3.60
2023-02-15T08:39:42.785Z,2.00
2023-02-15T08:42:10.864Z,2.40
2023-02-15T08:44:39.379Z,3.80
2023-02-15T08:47:07.341Z,4.80
2023-02-15T08:49:36.563Z,3.40
2023-02-15T08:52:04.833Z,2.60
2023-02-15T08:54:33.109Z,5.70
2023-02-15T08:57:01.100Z,3.70
2023-02-15T08:59:29.925Z,6.20
2023-02-15T09:01:58.158Z,4.00
2023-02-15T09:04:26.396Z,4.00
2023-02-15T09:06:56.208Z,4.90
2023-02-15T09:09:32.231Z,5.30
2023-02-15T09:12:00.448Z,3.50
2023-02-15T09:14:28.561Z,6.60
2023-02-15T09:16:57.025Z,4.80
2023-02-15T09:19:25.335Z,3.00
2023-02-15T09:21:55.092Z,4.10
2023-02-15T09:24:23.869Z,5.60
2023-02-15T09:26:54.734Z,7.00
2023-02-15T09:29:23.844Z,8.40
2023-02-15T09:31:52.118Z,14.70
2023-02-15T09:34:22.602Z,8.90
2023-02-15T09:36:51.127Z,10.20
2023-02-15T09:39:22.178Z,7.30
2023-02-15T09:42:05.448Z,7.90
2023-02-15T09:44:56.879Z,7.60
2023-02-15T09:47:59.032Z,3.60
2023-02-15T09:50:49.282Z,4.50
2023-02-15T09:53:23.330Z,3.50
2023-02-15T09:56:25.714Z,4.60
2023-02-15T09:59:11.821Z,6.20
2023-02-15T10:02:00.264Z,5.70
2023-02-15T10:04:55.939Z,3.70
2023-02-15T10:07:55.683Z,3.80
2023-02-15T10:10:48.045Z,3.40
2023-02-15T10:13:20.186Z,4.20
2023-02-15T10:15:58.291Z,3.10
2023-02-15T10:18:41.937Z,5.60
2023-02-15T10:21:40.578Z,5.20
2023-02-15T10:24:40.475Z,3.90
2023-02-15T10:27:13.934Z,5.10
2023-02-15T10:30:09.310Z,4.60
2023-02-15T10:32:48.170Z,3.10
2023-02-15T10:35:42.152Z,3.00
2023-02-15T10:38:19.370Z,4.10
2023-02-15T10:41:26.069Z,4.20
2023-02-15T10:44:13.804Z,3.00
2023-02-15T10:47:03.250Z,2.00
2023-02-15T10:49:43.763Z,3.30
2023-02-15T10:52:30.424Z,5.80
2023-02-15T10:55:19.953Z,3.10
2023-02-15T10:58:09.219Z,3.30
2023-02-15T11:01:09.548Z,2.80
2023-02-15T11:03:43.672Z,2.80
2023-02-15T11:06:21.146Z,5.70
2023-02-15T11:08:52.099Z,4.10
2023-02-15T11:11:36.218Z,4.30
2023-02-15T11:14:26.232Z,3.50
2023-02-15T11:16:56.757Z,4.10
2023-02-15T11:19:33.104Z,4.10
2023-02-15T11:22:03.716Z,4.10
2023-02-15T11:24:33.835Z,4.70
2023-02-15T11:27:14.151Z,4.50
2023-02-15T11:29:56.461Z,3.00
2023-02-15T11:32:29.794Z,2.70
2023-02-15T11:35:02.531Z,3.90
2023-02-15T11:37:38.413Z,3.70
2023-02-15T11:40:16.102Z,3.80
2023-02-15T11:42:44.636Z,4.30
2023-02-15T11:45:19.218Z,2.50
2023-02-15T11:47:47.198Z,3.60
2023-02-15T11:50:18.872Z,4.30
2023-02-15T11:52:46.748Z,4.90
2023-02-15T11:55:18.010Z,2.90
2023-02-15T11:58:09.848Z,2.70
2023-02-15T12:00:45.977Z,4.40
2023-02-15T12:03:36.893Z,4.30
2023-02-15T12:06:32.478Z,5.50
2023-02-15T12:09:25.495Z,4.10
2023-02-15T12:14:21.856Z,3.10
2023-02-15T12:16:55.053Z,3.50
2023-02-15T12:19:34.027Z,4.00
2023-02-15T12:22:05.701Z,3.80
2023-02-15T12:24:37.887Z,4.20
2023-02-15T12:27:39.227Z,4.00
2023-02-15T12:30:18.004Z,6.30
2023-02-15T12:32:55.133Z,4.10
2023-02-15T12:35:34.705Z,4.40
2023-02-15T12:38:11.824Z,3.60
2023-02-15T12:40:41.310Z,3.40
2023-02-15T12:43:43.484Z,3.60
2023-02-15T12:46:21.813Z,2.80
2023-02-15T12:49:20.538Z,3.20
2023-02-15T12:51:53.841Z,3.90
2023-02-15T12:54:41.500Z,5.10
2023-02-15T12:57:29.332Z,3.50
2023-02-15T13:00:04.352Z,3.40
2023-02-15T13:02:41.564Z,4.10
2023-02-15T13:05:42.882Z,5.80
2023-02-15T13:08:13.926Z,4.40
2023-02-15T13:11:05.124Z,4.10
2023-02-15T13:13:35.633Z,6.40
2023-02-15T13:16:07.297Z,3.30
2023-02-15T13:18:40.192Z,6.50
2023-02-15T13:21:15.005Z,4.80
2023-02-15T13:23:47.113Z,4.00
2023-02-15T13:26:21.145Z,5.20
2023-02-15T13:28:57.312Z,3.70
2023-02-15T13:31:29.049Z,6.70
2023-02-15T13:34:20.850Z,3.50
2023-02-15T13:37:21.125Z,5.10
2023-02-15T13:40:07.978Z,5.10
2023-02-15T13:42:41.781Z,8.40
2023-02-15T13:47:56.788Z,6.30
2023-02-15T13:50:30.306Z,3.80
2023-02-15T13:53:08.074Z,8.30
2023-02-15T13:55:55.731Z,9.20
2023-02-15T13:58:36.058Z,6.20
2023-02-15T14:01:12.041Z,7.20
2023-02-15T14:04:04.035Z,5.50
2023-02-15T14:06:54.234Z,3.50
2023-02-15T14:09:40.926Z,5.10
2023-02-15T14:12:23.296Z,5.70
2023-02-15T14:15:01.019Z,5.80
2023-02-15T14:17:48.024Z,5.10
2023-02-15T14:20:33.392Z,6.70
2023-02-15T14:23:30.687Z,5.00
2023-02-15T14:26:05.542Z,9.00
2023-02-15T14:28:56.138Z,5.30
2023-02-15T14:31:34.604Z,5.50
2023-02-15T14:35:51.295Z,8.50
2023-02-15T14:38:34.572Z,15.20
2023-02-15T14:41:20.867Z,15.70
2023-02-15T14:44:17.020Z,10.10
2023-02-15T14:46:59.887Z,9.60
2023-02-15T14:49:32.088Z,10.40
2023-02-15T14:52:11.804Z,7.40
2023-02-15T14:54:39.942Z,5.40
2023-02-15T14:57:08.236Z,6.10
2023-02-15T14:59:37.908Z,5.40
2023-02-15T15:02:09.691Z,5.00
2023-02-15T15:04:40.834Z,4.20
2023-02-15T15:07:24.460Z,3.40
2023-02-15T15:10:21.178Z,5.70
2023-02-15T15:12:56.275Z,6.10
2023-02-15T15:15:27.909Z,7.90
2023-02-15T15:18:08.538Z,3.60
2023-02-15T15:20:51.725Z,3.80
2023-02-15T15:23:21.211Z,3.60
2023-02-15T15:25:55.382Z,3.80
2023-02-15T15:28:35.750Z,5.20
2023-02-15T15:31:32.939Z,3.50
2023-02-15T15:34:23.013Z,5.40
2023-02-15T15:36:59.999Z,4.80
2023-02-15T15:40:06.078Z,4.60
2023-02-15T15:42:49.460Z,6.20
2023-02-15T15:45:43.478Z,3.90
2023-02-15T15:48:36.671Z,4.80
2023-02-15T15:51:11.032Z,6.10
2023-02-15T15:53:43.479Z,4.80
2023-02-15T15:56:25.999Z,3.00
2023-02-15T15:58:57.221Z,3.50
2023-02-15T16:01:29.685Z,3.90
2023-02-15T16:03:59.355Z,4.50
2023-02-15T16:06:31.677Z,3.10
2023-02-15T16:09:14.565Z,4.00
2023-02-15T16:11:43.412Z,3.60
2023-02-15T16:14:38.708Z,4.50
2023-02-15T16:17:17.269Z,4.70
2023-02-15T16:19:45.428Z,3.30
2023-02-15T16:22:16.609Z,3.90
2023-02-15T16:24:48.041Z,6.10
2023-02-15T16:27:36.079Z,4.00
2023-02-15T16:30:37.537Z,3.20
2023-02-15T16:33:16.999Z,4.10
2023-02-15T16:35:55.620Z,4.40
2023-02-15T16:38:43.101Z,8.40
2023-02-15T16:41:15.212Z,4.50
2023-02-15T16:43:45.066Z,3.30
2023-02-15T16:46:16.612Z,4.90
2023-02-15T16:48:46.844Z,5.80
2023-02-15T16:51:27.569Z,3.80
2023-02-15T16:53:57.829Z,2.90
2023-02-15T16:56:27.723Z,4.70
2023-02-15T16:58:55.894Z,7.20
2023-02-15T17:01:25.340Z,3.60
2023-02-15T17:04:15.183Z,4.70
2023-02-15T17:06:43.482Z,5.90
2023-02-15T17:09:19.557Z,3.90
2023-02-15T17:11:47.806Z,3.90
2023-02-15T17:14:21.943Z,4.20
2023-02-15T17:16:54.327Z,4.40
2023-02-15T17:19:54.823Z,5.40
2023-02-15T17:22:25.300Z,8.90
2023-02-15T17:25:01.078Z,7.20
2023-02-15T17:27:30.302Z,8.00
2023-02-15T17:30:03.464Z,8.00
2023-02-15T17:32:32.705Z,6.60
2023-02-15T17:35:09.505Z,6.70
2023-02-15T17:37:37.687Z,7.20
2023-02-15T17:40:23.516Z,5.30
2023-02-15T17:42:51.915Z,4.50
2023-02-15T17:45:20.624Z,4.30
2023-02-15T17:47:49.910Z,8.10
2023-02-15T17:50:23.312Z,10.70
2023-02-15T17:52:52.257Z,6.10
2023-02-15T17:55:41.368Z,6.50
2023-02-15T17:58:17.105Z,3.70
2023-02-15T18:01:12.064Z,5.40
2023-02-15T18:04:06.850Z,7.20
2023-02-15T18:06:54.878Z,7.40
2023-02-15T18:09:41.760Z,11.70
2023-02-15T18:12:23.561Z,15.30
2023-02-15T18:14:52.433Z,15.80
2023-02-15T18:17:34.553Z,11.70
2023-02-15T18:20:05.637Z,14.20
2023-02-15T18:22:33.965Z,26.10
2023-02-15T18:25:01.950Z,18.90
2023-02-15T18:27:30.355Z,11.20
2023-02-15T18:29:59.124Z,8.30
2023-02-15T18:32:32.039Z,9.00
2023-02-15T18:35:00.388Z,26.50
2023-02-15T18:37:30.831Z,17.20
2023-02-15T18:39:58.756Z,12.40
2023-02-15T18:42:35.291Z,7.70
2023-02-15T18:45:21.405Z,6.70
2023-02-15T18:47:49.674Z,8.50
2023-02-15T18:50:19.734Z,7.70
2023-02-15T18:52:48.940Z,8.80
2023-02-15T18:55:22.124Z,9.70
2023-02-15T18:57:51.910Z,7.00
2023-02-15T19:00:32.256Z,11.00
2023-02-15T19:03:02.039Z,9.10
2023-02-15T19:05:31.164Z,6.70
2023-02-15T19:08:00.276Z,5.60
2023-02-15T19:10:29.878Z,5.60
2023-02-15T19:12:58.261Z,4.80
2023-02-15T19:15:30.553Z,5.60
2023-02-15T19:17:59.552Z,8.00
2023-02-15T19:20:41.919Z,5.70
2023-02-15T19:23:23.839Z,4.10
2023-02-15T19:25:52.638Z,6.40
2023-02-15T19:28:27.712Z,4.10
2023-02-15T19:30:56.071Z,4.90
2023-02-15T19:33:24.635Z,6.00
2023-02-15T19:35:57.753Z,8.90
2023-02-15T19:38:29.473Z,5.70
2023-02-15T19:41:08.531Z,4.20
2023-02-15T19:43:37.276Z,8.30
2023-02-15T19:46:05.753Z,10.20
2023-02-15T19:48:34.757Z,10.40
2023-02-15T19:51:06.112Z,16.00
2023-02-15T19:53:34.199Z,17.20
2023-02-15T19:56:02.913Z,26.30
2023-02-15T19:58:33.688Z,18.70
2023-02-15T20:01:03.318Z,19.80
2023-02-15T20:03:32.546Z,12.60
2023-02-15T20:06:00.749Z,13.50
2023-02-15T20:08:34.622Z,18.00
2023-02-15T20:11:03.166Z,12.40
2023-02-15T20:13:31.944Z,12.40
2023-02-15T20:16:05.410Z,7.30
2023-02-15T20:21:03.618Z,8.40
2023-02-15T20:23:37.347Z,6.40
2023-02-15T20:28:47.310Z,5.50
2023-02-15T20:31:16.809Z,4.90
2023-02-15T20:33:46.337Z,7.90
2023-02-15T20:36:20.214Z,6.90
2023-02-15T20:38:48.985Z,5.30
2023-02-15T20:41:37.818Z,9.00
2023-02-15T20:44:20.932Z,10.80
2023-02-15T20:46:50.224Z,9.40
2023-02-15T20:49:18.807Z,7.60
2023-02-15T20:51:48.082Z,7.70
2023-02-15T20:54:21.777Z,6.50
2023-02-15T20:59:30.631Z,7.90
2023-02-15T21:02:00.829Z,11.20
2023-02-15T21:04:31.196Z,9.60
2023-02-15T21:07:00.143Z,7.20
2023-02-15T21:09:29.057Z,7.60
2023-02-15T21:11:58.865Z,7.50
2023-02-15T21:14:27.552Z,7.90
2023-02-15T21:16:55.932Z,6.60
2023-02-15T21:19:24.221Z,9.80
2023-02-15T21:21:53.149Z,6.50
2023-02-15T21:24:28.478Z,7.60
2023-02-15T21:26:57.126Z,4.70
2023-02-15T21:29:26.642Z,7.30
2023-02-15T21:31:54.872Z,6.20
2023-02-15T21:34:23.128Z,7.20
2023-02-15T21:36:51.466Z,5.20
2023-02-15T21:39:24.370Z,5.20
2023-02-15T21:42:11.947Z,6.00
2023-02-15T21:44:59.199Z,7.80
2023-02-15T21:47:48.500Z,8.50
2023-02-15T21:50:37.033Z,8.20
2023-02-15T21:53:05.500Z,9.30
2023-02-15T21:55:33.572Z,8.90
2023-02-15T21:58:01.799Z,10.40
2023-02-15T22:00:30.290Z,8.90
2023-02-15T22:02:59.005Z,7.20
2023-02-15T22:05:30.394Z,9.30
2023-02-15T22:07:59.378Z,6.10
2023-02-15T22:10:32.285Z,7.80
2023-02-15T22:13:01.466Z,8.90
2023-02-15T22:15:34.410Z,6.70
2023-02-15T22:18:03.101Z,8.90
2023-02-15T22:20:31.785Z,7.10
2023-02-15T22:22:59.896Z,8.10
2023-02-15T22:25:28.122Z,7.90
2023-02-15T22:27:57.247Z,7.30
2023-02-15T22:30:36.160Z,7.70
2023-02-15T22:33:04.138Z,6.30
2023-02-15T22:35:34.373Z,5.20
2023-02-15T22:38:02.404Z,6.50
2023-02-15T22:40:32.870Z,8.90
2023-02-15T22:43:03.099Z,8.90
2023-02-15T22:45:31.952Z,8.00
2023-02-15T22:48:00.323Z,6.90
2023-02-15T22:50:30.918Z,6.80
2023-02-15T22:53:02.503Z,10.40
2023-02-15T22:55:33.954Z,9.10
2023-02-15T22:58:02.370Z,8.70
2023-02-15T23:00:33.309Z,9.00
2023-02-15T23:03:02.359Z,8.40
2023-02-15T23:05:32.393Z,6.30
2023-02-15T23:08:11.742Z,8.20
2023-02-15T23:10:40.572Z,7.00
2023-02-15T23:13:29.504Z,9.20
2023-02-15T23:15:59.447Z,7.10
2023-02-15T23:18:28.920Z,6.80
2023-02-15T23:21:06.532Z,12.30
2023-02-15T23:23:40.837Z,12.00
2023-02-15T23:26:20.376Z,8.70
2023-02-15T23:28:48.668Z,8.00
2023-02-15T23:31:21.132Z,7.00
2023-02-15T23:33:49.568Z,6.90
2023-02-15T23:36:37.663Z,6.50
2023-02-15T23:39:32.242Z,6.90
2023-02-15T23:42:01.126Z,7.60
2023-02-15T23:44:30.830Z,6.20
2023-02-15T23:46:59.820Z,4.10
2023-02-15T23:49:29.157Z,8.20
2023-02-15T23:51:57.789Z,6.30
2023-02-15T23:54:26.122Z,5.50
2023-02-15T23:56:56.043Z,4.50
2023-02-15T23:59:25.473Z,6.60
